createdAt,value
2018-12-15T00:00:52.507Z,2.00
2018-12-15T00:03:27.379Z,1.90
2018-12-15T00:05:59.327Z,1.90
2018-12-15T00:08:33.666Z,2.00
2018-12-15T00:11:05.618Z,1.90
2018-12-15T00:13:40.149Z,2.00
2018-12-15T00:16:14.567Z,2.00
2018-12-15T00:18:49.485Z,1.90
2018-12-15T00:21:23.425Z,1.90
2018-12-15T00:23:55.364Z,1.90
2018-12-15T00:26:30.921Z,1.90
2018-12-15T00:29:03.054Z,1.90
2018-12-15T00:31:35.467Z,2.00
2018-12-15T00:34:07.596Z,1.90
2018-12-15T00:36:41.977Z,1.90
2018-12-15T00:39:25.326Z,2.00
2018-12-15T00:41:57.791Z,2.00
2018-12-15T00:44:30.068Z,1.90
2018-12-15T00:47:13.952Z,2.00
2018-12-15T00:49:49.300Z,2.00
2018-12-15T00:52:22.003Z,2.00
2018-12-15T00:54:56.302Z,2.00
2018-12-15T00:57:32.725Z,2.00
2018-12-15T01:00:03.645Z,2.00
2018-12-15T01:02:34.418Z,1.90
2018-12-15T01:05:13.167Z,2.00
2018-12-15T01:07:47.644Z,1.90
2018-12-15T01:10:22.553Z,1.90
2018-12-15T01:12:54.458Z,2.00
2018-12-15T01:15:31.888Z,1.90
2018-12-15T01:18:12.401Z,1.90
2018-12-15T01:20:42.964Z,2.00
2018-12-15T01:23:17.626Z,2.00
2018-12-15T01:25:52.226Z,2.00
2018-12-15T01:28:26.429Z,2.00
2018-12-15T01:31:00.908Z,1.90
2018-12-15T01:33:35.966Z,1.90
2018-12-15T01:36:10.026Z,1.90
2018-12-15T01:38:45.003Z,2.00
2018-12-15T01:41:16.955Z,1.90
2018-12-15T01:43:51.313Z,1.90
2018-12-15T01:46:23.294Z,1.90
2018-12-15T01:48:55.168Z,1.90
2018-12-15T01:51:31.778Z,2.00
2018-12-15T01:54:04.242Z,1.90
2018-12-15T01:56:36.174Z,1.80
2018-12-15T01:59:10.673Z,1.90
2018-12-15T02:01:45.154Z,1.90
2018-12-15T02:04:15.782Z,1.90
2018-12-15T02:06:48.204Z,2.00
2018-12-15T02:09:20.599Z,2.00
2018-12-15T02:11:54.795Z,1.90
2018-12-15T02:14:28.905Z,1.90
2018-12-15T02:17:01.620Z,1.90
2018-12-15T02:19:50.448Z,1.90
2018-12-15T02:22:23.170Z,1.90
2018-12-15T02:24:55.503Z,1.90
2018-12-15T02:27:30.114Z,1.90
2018-12-15T02:30:09.178Z,1.90
2018-12-15T02:32:40.167Z,1.90
2018-12-15T02:38:11.903Z,2.00
2018-12-15T02:40:46.031Z,1.90
2018-12-15T02:46:22.263Z,1.90
2018-12-15T02:48:58.664Z,1.90
2018-12-15T02:51:33.321Z,1.90
2018-12-15T02:54:08.206Z,1.80
2018-12-15T02:56:44.127Z,1.80
2018-12-15T02:59:18.525Z,1.90
2018-12-15T03:01:57.281Z,1.90
2018-12-15T03:04:36.191Z,1.90
2018-12-15T03:07:08.808Z,1.90
2018-12-15T03:09:42.881Z,1.40
2018-12-15T03:15:14.999Z,1.70
2018-12-15T03:17:50.113Z,1.70
2018-12-15T03:20:24.533Z,1.70
2018-12-15T03:22:56.388Z,1.80
2018-12-15T03:25:30.601Z,1.90
2018-12-15T03:28:02.984Z,1.90
2018-12-15T03:30:35.286Z,1.90
2018-12-15T03:33:09.263Z,1.90
2018-12-15T03:35:41.110Z,1.90
2018-12-15T03:38:13.584Z,1.90
2018-12-15T03:40:47.804Z,1.90
2018-12-15T03:43:18.316Z,1.90
2018-12-15T03:45:50.314Z,1.90
2018-12-15T03:48:20.914Z,1.90
2018-12-15T03:50:59.555Z,2.00
2018-12-15T03:53:31.785Z,1.90
2018-12-15T03:56:04.278Z,1.90
2018-12-15T03:58:36.174Z,2.00
2018-12-15T04:01:16.869Z,2.00
2018-12-15T04:03:49.454Z,2.00
2018-12-15T04:06:23.923Z,1.90
2018-12-15T04:08:56.540Z,2.00
2018-12-15T04:11:30.608Z,2.00
2018-12-15T04:14:02.455Z,1.90
2018-12-15T04:16:43.573Z,1.90
2018-12-15T04:19:16.237Z,1.90
2018-12-15T04:21:50.527Z,2.00
2018-12-15T04:24:24.598Z,2.00
2018-12-15T04:27:09.432Z,1.90
2018-12-15T04:29:41.658Z,1.90
2018-12-15T04:32:17.122Z,1.90
2018-12-15T04:34:49.766Z,1.80
2018-12-15T04:37:20.528Z,1.80
2018-12-15T04:40:04.219Z,1.90
2018-12-15T04:42:36.767Z,1.80
2018-12-15T04:45:08.988Z,1.80
2018-12-15T04:47:43.802Z,1.80
2018-12-15T04:50:18.303Z,1.80
2018-12-15T04:52:50.985Z,1.80
2018-12-15T04:55:25.336Z,1.80
2018-12-15T04:58:00.131Z,1.80
2018-12-15T05:00:34.478Z,1.90
2018-12-15T05:03:09.318Z,1.90
2018-12-15T05:05:41.351Z,1.90
2018-12-15T05:08:14.437Z,1.90
2018-12-15T05:10:46.581Z,1.80
2018-12-15T05:13:18.992Z,1.80
2018-12-15T05:15:51.358Z,1.70
2018-12-15T05:18:22.129Z,1.70
2018-12-15T05:21:06.987Z,1.80
2018-12-15T05:23:37.398Z,1.80
2018-12-15T05:26:12.210Z,1.90
2018-12-15T05:28:44.763Z,1.80
2018-12-15T05:31:18.291Z,1.80
2018-12-15T05:33:50.232Z,1.80
2018-12-15T05:36:22.579Z,1.80
2018-12-15T05:38:54.477Z,1.90
2018-12-15T05:41:30.267Z,1.80
2018-12-15T05:44:02.345Z,1.70
2018-12-15T05:46:36.713Z,1.80
2018-12-15T05:49:09.253Z,1.80
2018-12-15T05:51:43.709Z,1.80
2018-12-15T05:54:14.009Z,1.80
2018-12-15T05:56:48.370Z,1.80
2018-12-15T05:59:24.215Z,1.80
2018-12-15T06:01:59.486Z,1.70
2018-12-15T06:04:32.333Z,1.70
2018-12-15T06:07:06.333Z,1.70
2018-12-15T06:09:41.249Z,1.80
2018-12-15T06:12:15.544Z,1.80
2018-12-15T06:14:47.387Z,1.70
2018-12-15T06:17:19.680Z,1.80
2018-12-15T06:20:06.092Z,1.70
2018-12-15T06:22:41.068Z,1.60
2018-12-15T06:25:15.627Z,1.50
2018-12-15T06:27:48.399Z,1.60
2018-12-15T06:30:22.654Z,1.70
2018-12-15T06:32:55.429Z,1.70
2018-12-15T06:35:29.803Z,1.60
2018-12-15T06:38:00.444Z,1.60
2018-12-15T06:40:32.547Z,1.70
2018-12-15T06:43:04.446Z,1.70
2018-12-15T06:45:36.919Z,1.70
2018-12-15T06:48:23.376Z,1.70
2018-12-15T06:50:57.781Z,1.70
2018-12-15T06:53:32.891Z,1.80
2018-12-15T06:56:13.236Z,1.80
2018-12-15T06:58:47.612Z,1.60
2018-12-15T07:01:25.724Z,1.60
2018-12-15T07:03:58.427Z,1.60
2018-12-15T07:06:30.889Z,1.70
2018-12-15T07:09:03.626Z,1.80
2018-12-15T07:11:34.414Z,1.80
2018-12-15T07:14:06.729Z,1.60
2018-12-15T07:16:40.832Z,1.60
2018-12-15T07:19:12.800Z,1.60
2018-12-15T07:21:45.597Z,1.80
2018-12-15T07:24:20.439Z,1.90
2018-12-15T07:26:53.098Z,1.90
2018-12-15T07:29:25.314Z,2.00
2018-12-15T07:31:57.417Z,2.00
2018-12-15T07:34:32.324Z,1.90
2018-12-15T07:37:07.346Z,1.90
2018-12-15T07:39:37.951Z,2.00
2018-12-15T07:42:10.626Z,2.00
2018-12-15T07:44:53.531Z,1.90
2018-12-15T07:47:25.804Z,2.00
2018-12-15T07:49:58.533Z,2.00
2018-12-15T07:52:33.074Z,2.00
2018-12-15T07:55:05.597Z,2.00
2018-12-15T07:57:37.468Z,2.00
2018-12-15T08:00:11.986Z,1.80
2018-12-15T08:02:44.085Z,1.80
2018-12-15T08:05:22.142Z,1.90
2018-12-15T08:07:56.371Z,2.00
2018-12-15T08:10:35.617Z,2.00
2018-12-15T08:13:09.813Z,2.00
2018-12-15T08:15:42.311Z,2.10
2018-12-15T08:18:18.624Z,2.10
2018-12-15T08:20:51.386Z,2.00
2018-12-15T08:23:26.215Z,2.00
2018-12-15T08:26:00.939Z,2.10
2018-12-15T08:28:45.542Z,2.10
2018-12-15T08:31:25.554Z,1.90
2018-12-15T08:33:59.762Z,2.00
2018-12-15T08:36:36.016Z,2.10
2018-12-15T08:39:16.202Z,2.10
2018-12-15T08:41:48.571Z,2.10
2018-12-15T08:44:23.414Z,2.10
2018-12-15T08:46:56.270Z,2.10
2018-12-15T08:49:30.392Z,2.10
2018-12-15T08:52:02.828Z,2.00
2018-12-15T08:54:37.185Z,2.10
2018-12-15T08:57:15.927Z,2.10
2018-12-15T08:59:50.377Z,2.30
2018-12-15T09:02:23.461Z,2.30
2018-12-15T09:05:01.720Z,2.30
2018-12-15T09:10:13.781Z,2.30
2018-12-15T09:12:46.221Z,2.30
2018-12-15T09:15:17.530Z,2.30
2018-12-15T09:17:52.414Z,2.30
2018-12-15T09:20:24.692Z,2.30
2018-12-15T09:22:57.757Z,2.30
2018-12-15T09:25:34.795Z,2.30
2018-12-15T09:28:13.959Z,2.30
2018-12-15T09:30:47.816Z,2.20
2018-12-15T09:33:19.619Z,2.30
2018-12-15T09:35:54.614Z,2.20
2018-12-15T09:38:24.913Z,2.30
2018-12-15T09:41:01.253Z,2.30
2018-12-15T09:43:38.072Z,2.20
2018-12-15T09:46:12.574Z,2.20
2018-12-15T09:48:46.442Z,2.30
2018-12-15T09:51:24.455Z,2.20
2018-12-15T09:53:57.574Z,2.30
2018-12-15T09:56:35.815Z,2.30
2018-12-15T09:59:07.829Z,2.30
2018-12-15T10:01:42.177Z,2.20
2018-12-15T10:04:14.383Z,2.30
2018-12-15T10:06:46.639Z,2.30
2018-12-15T10:09:21.115Z,2.40
2018-12-15T10:11:55.423Z,2.30
2018-12-15T10:14:39.530Z,2.30
2018-12-15T10:17:12.958Z,2.50
2018-12-15T10:19:45.180Z,2.50
2018-12-15T10:22:19.386Z,2.50
2018-12-15T10:24:51.268Z,2.50
2018-12-15T10:27:23.361Z,2.50
2018-12-15T10:30:00.899Z,2.60
2018-12-15T10:32:38.127Z,2.60
2018-12-15T10:35:10.025Z,2.50
2018-12-15T10:37:44.618Z,2.60
2018-12-15T10:40:17.386Z,2.60
2018-12-15T10:42:49.202Z,2.50
2018-12-15T10:45:23.663Z,2.60
2018-12-15T10:48:02.903Z,2.60
2018-12-15T10:50:37.879Z,2.50
2018-12-15T10:53:14.456Z,2.30
2018-12-15T10:55:48.535Z,2.40
2018-12-15T10:58:22.516Z,2.50
2018-12-15T11:00:57.111Z,2.60
2018-12-15T11:03:29.351Z,2.60
2018-12-15T11:06:04.190Z,2.70
2018-12-15T11:08:34.828Z,2.70
2018-12-15T11:11:09.342Z,2.60
2018-12-15T11:13:42.138Z,2.70
2018-12-15T11:16:20.419Z,2.70
2018-12-15T11:18:52.956Z,2.70
2018-12-15T11:21:27.873Z,2.80
2018-12-15T11:24:03.433Z,2.80
2018-12-15T11:26:35.670Z,2.90
2018-12-15T11:29:08.427Z,2.90
2018-12-15T11:31:43.546Z,2.90
2018-12-15T11:34:24.225Z,2.90
2018-12-15T11:37:01.504Z,2.90
2018-12-15T11:39:35.790Z,2.70
2018-12-15T11:42:07.689Z,2.90
2018-12-15T11:44:39.793Z,2.90
2018-12-15T11:47:12.273Z,2.90
2018-12-15T11:49:44.764Z,2.90
2018-12-15T11:52:18.603Z,2.90
2018-12-15T11:54:53.388Z,3.00
2018-12-15T11:57:28.381Z,3.00
2018-12-15T12:00:03.890Z,3.00
2018-12-15T12:02:34.259Z,2.80
2018-12-15T12:05:09.084Z,2.90
2018-12-15T12:07:39.758Z,2.90
2018-12-15T12:10:11.895Z,2.80
2018-12-15T12:12:46.211Z,2.50
2018-12-15T12:15:22.558Z,2.70
2018-12-15T12:18:01.398Z,2.90
2018-12-15T12:20:34.173Z,3.00
2018-12-15T12:23:09.180Z,3.00
2018-12-15T12:25:41.071Z,3.00
2018-12-15T12:28:15.773Z,2.90
2018-12-15T12:30:49.881Z,2.80
2018-12-15T12:33:21.749Z,2.80
2018-12-15T12:35:52.781Z,2.70
2018-12-15T12:38:23.296Z,2.70
2018-12-15T12:40:55.557Z,2.70
2018-12-15T12:43:28.476Z,2.70
2018-12-15T12:46:00.538Z,2.80
2018-12-15T12:48:34.202Z,2.80
2018-12-15T12:51:12.276Z,2.90
2018-12-15T12:53:46.688Z,2.90
2018-12-15T12:56:16.875Z,2.70
2018-12-15T12:58:58.096Z,2.60
2018-12-15T13:01:30.475Z,2.60
2018-12-15T13:04:04.799Z,2.60
2018-12-15T13:06:37.658Z,2.60
2018-12-15T13:09:16.260Z,2.70
2018-12-15T13:11:48.963Z,2.50
2018-12-15T13:14:21.399Z,2.60
2018-12-15T13:16:55.909Z,2.70
2018-12-15T13:19:29.099Z,2.60
2018-12-15T13:22:03.454Z,2.50
2018-12-15T13:24:36.412Z,2.60
2018-12-15T13:27:08.456Z,2.70
2018-12-15T13:32:43.306Z,2.60
2018-12-15T13:35:16.041Z,2.70
2018-12-15T13:37:50.052Z,2.90
2018-12-15T13:40:30.516Z,2.90
2018-12-15T13:43:03.212Z,2.90
2018-12-15T13:45:37.458Z,2.90
2018-12-15T13:48:10.322Z,2.90
2018-12-15T13:50:42.260Z,3.00
2018-12-15T13:53:15.225Z,2.70
2018-12-15T13:56:04.026Z,2.70
2018-12-15T13:58:34.005Z,2.80
2018-12-15T14:01:15.063Z,2.80
2018-12-15T14:03:54.886Z,2.90
2018-12-15T14:06:27.628Z,3.10
2018-12-15T14:09:00.173Z,3.20
2018-12-15T14:11:34.267Z,3.10
2018-12-15T14:14:08.584Z,3.30
2018-12-15T14:16:42.557Z,3.30
2018-12-15T14:19:16.912Z,3.40
2018-12-15T14:21:49.525Z,3.40
2018-12-15T14:24:24.364Z,3.20
2018-12-15T14:26:56.265Z,2.90
2018-12-15T14:29:28.441Z,2.70
2018-12-15T14:32:00.740Z,3.00
2018-12-15T14:34:39.160Z,2.90
2018-12-15T14:37:11.980Z,2.40
2018-12-15T14:39:47.380Z,2.60
2018-12-15T14:45:23.293Z,2.60
2018-12-15T14:47:56.828Z,2.40
2018-12-15T14:50:34.268Z,2.60
2018-12-15T14:53:06.232Z,2.80
2018-12-15T14:55:38.450Z,2.50
2018-12-15T14:58:12.508Z,2.30
2018-12-15T15:00:51.156Z,2.20
2018-12-15T15:03:23.755Z,2.20
2018-12-15T15:05:56.151Z,2.50
2018-12-15T15:08:30.589Z,2.30
2018-12-15T15:11:05.313Z,2.40
2018-12-15T15:13:37.240Z,2.50
2018-12-15T15:16:09.591Z,2.20
2018-12-15T15:18:43.756Z,2.00
2018-12-15T15:21:15.528Z,2.20
2018-12-15T15:23:50.249Z,2.20
2018-12-15T15:26:26.279Z,2.00
2018-12-15T15:29:00.381Z,1.70
2018-12-15T15:31:32.735Z,1.90
2018-12-15T15:34:04.819Z,1.90
2018-12-15T15:36:37.372Z,2.10
2018-12-15T15:39:16.054Z,2.00
2018-12-15T15:41:50.319Z,1.70
2018-12-15T15:44:24.386Z,2.00
2018-12-15T15:46:58.836Z,1.90
2018-12-15T15:49:32.931Z,1.70
2018-12-15T15:52:13.262Z,1.90
2018-12-15T15:54:48.212Z,1.90
2018-12-15T15:57:32.721Z,1.80
2018-12-15T16:00:08.468Z,1.80
2018-12-15T16:02:41.203Z,1.70
2018-12-15T16:05:13.802Z,1.70
2018-12-15T16:07:46.288Z,1.50
2018-12-15T16:10:18.759Z,1.50
2018-12-15T16:12:51.112Z,1.50
2018-12-15T16:15:25.614Z,1.70
2018-12-15T16:17:59.815Z,1.80
2018-12-15T16:20:32.475Z,1.50
2018-12-15T16:23:04.602Z,1.60
2018-12-15T16:25:36.668Z,1.70
2018-12-15T16:28:10.984Z,1.80
2018-12-15T16:30:42.770Z,1.80
2018-12-15T16:33:17.250Z,1.90
2018-12-15T16:35:49.379Z,2.00
2018-12-15T16:38:23.561Z,2.00
2018-12-15T16:41:02.074Z,2.00
2018-12-15T16:43:32.716Z,2.00
2018-12-15T16:46:04.796Z,1.90
2018-12-15T16:48:37.279Z,2.00
2018-12-15T16:51:09.375Z,1.80
2018-12-15T16:53:43.539Z,1.90
2018-12-15T16:56:17.716Z,1.90
2018-12-15T16:58:52.960Z,1.70
2018-12-15T17:01:23.622Z,1.60
2018-12-15T17:03:57.954Z,1.60
2018-12-15T17:06:31.980Z,1.60
2018-12-15T17:09:09.174Z,1.70
2018-12-15T17:11:41.137Z,1.70
2018-12-15T17:14:13.185Z,1.80
2018-12-15T17:16:43.245Z,1.90
2018-12-15T17:19:13.852Z,1.90
2018-12-15T17:21:52.190Z,1.70
2018-12-15T17:24:24.159Z,1.70
2018-12-15T17:26:53.965Z,1.50
2018-12-15T17:29:28.827Z,1.60
2018-12-15T17:32:03.004Z,1.50
2018-12-15T17:34:37.101Z,1.70
2018-12-15T17:37:11.242Z,1.60
2018-12-15T17:39:43.866Z,1.90
2018-12-15T17:44:35.973Z,1.70
2018-12-15T17:47:10.617Z,1.90
2018-12-15T17:49:44.871Z,1.60
2018-12-15T17:52:17.443Z,1.60
2018-12-15T17:54:49.792Z,1.40
2018-12-15T17:57:24.295Z,1.40
2018-12-15T17:59:56.229Z,1.30
2018-12-15T18:02:28.395Z,1.20
2018-12-15T18:05:01.892Z,1.20
2018-12-15T18:07:33.429Z,1.40
2018-12-15T18:10:08.801Z,1.40
2018-12-15T18:12:43.146Z,1.40
2018-12-15T18:15:15.356Z,1.20
2018-12-15T18:17:49.375Z,1.20
2018-12-15T18:20:23.477Z,1.40
2018-12-15T18:22:55.546Z,1.40
2018-12-15T18:25:27.414Z,1.40
2018-12-15T18:28:12.216Z,1.40
2018-12-15T18:30:46.853Z,1.30
2018-12-15T18:33:21.035Z,1.30
2018-12-15T18:35:55.862Z,1.20
2018-12-15T18:38:30.256Z,1.20
2018-12-15T18:41:02.396Z,1.00
2018-12-15T18:43:34.347Z,1.00
2018-12-15T18:46:06.044Z,1.10
2018-12-15T18:48:38.478Z,0.90
2018-12-15T18:51:16.364Z,0.90
2018-12-15T18:53:51.068Z,1.00
2018-12-15T18:56:23.939Z,1.10
2018-12-15T18:58:56.042Z,1.10
2018-12-15T19:01:28.325Z,1.20
2018-12-15T19:04:03.416Z,1.30
2018-12-15T19:06:37.678Z,1.30
2018-12-15T19:09:09.794Z,1.30
2018-12-15T19:11:45.346Z,1.20
2018-12-15T19:14:19.322Z,1.20
2018-12-15T19:16:51.348Z,1.10
2018-12-15T19:19:25.485Z,0.90
2018-12-15T19:21:59.858Z,1.00
2018-12-15T19:24:38.193Z,1.10
2018-12-15T19:27:10.797Z,0.90
2018-12-15T19:29:43.053Z,0.90
2018-12-15T19:32:15.082Z,1.00
2018-12-15T19:34:52.391Z,1.10
2018-12-15T19:37:23.375Z,1.10
2018-12-15T19:39:55.715Z,0.90
2018-12-15T19:42:26.045Z,1.10
2018-12-15T19:45:00.709Z,1.10
2018-12-15T19:47:39.367Z,0.90
2018-12-15T19:50:14.202Z,0.90
2018-12-15T19:52:48.419Z,0.80
2018-12-15T19:55:21.303Z,0.80
2018-12-15T19:57:55.890Z,0.90
2018-12-15T20:00:31.796Z,0.90
2018-12-15T20:03:07.055Z,0.80
2018-12-15T20:05:42.143Z,1.00
2018-12-15T20:08:18.034Z,0.90
2018-12-15T20:10:48.899Z,1.00
2018-12-15T20:13:29.719Z,1.00
2018-12-15T20:16:04.020Z,0.90
2018-12-15T20:18:36.641Z,0.90
2018-12-15T20:21:11.552Z,0.80
2018-12-15T20:23:45.645Z,0.60
2018-12-15T20:26:20.802Z,0.50
2018-12-15T20:28:55.687Z,0.80
2018-12-15T20:31:28.541Z,1.00
2018-12-15T20:34:02.677Z,1.20
2018-12-15T20:36:34.826Z,1.00
2018-12-15T20:39:09.567Z,0.90
2018-12-15T20:41:41.412Z,0.70
2018-12-15T20:44:13.501Z,0.60
2018-12-15T20:46:47.781Z,0.60
2018-12-15T20:49:19.694Z,0.70
2018-12-15T20:51:52.982Z,0.80
2018-12-15T20:54:25.108Z,0.90
2018-12-15T20:56:59.796Z,0.80
2018-12-15T20:59:32.534Z,0.90
2018-12-15T21:02:07.946Z,0.90
2018-12-15T21:04:40.584Z,0.70
2018-12-15T21:07:12.543Z,1.00
2018-12-15T21:09:44.682Z,1.10
2018-12-15T21:12:19.488Z,1.10
2018-12-15T21:14:56.986Z,1.00
2018-12-15T21:17:29.125Z,1.00
2018-12-15T21:20:04.308Z,0.90
2018-12-15T21:22:40.594Z,0.80
2018-12-15T21:25:13.235Z,0.80
2018-12-15T21:27:45.303Z,0.80
2018-12-15T21:30:19.792Z,1.00
2018-12-15T21:33:00.708Z,1.10
2018-12-15T21:35:32.605Z,1.20
2018-12-15T21:38:04.599Z,1.20
2018-12-15T21:40:38.968Z,1.10
2018-12-15T21:43:11.777Z,0.80
2018-12-15T21:45:44.036Z,0.80
2018-12-15T21:48:16.058Z,0.70
2018-12-15T21:50:48.248Z,0.60
2018-12-15T21:53:20.738Z,0.40
2018-12-15T21:55:56.737Z,0.50
2018-12-15T21:58:31.713Z,0.60
2018-12-15T22:01:02.024Z,0.60
2018-12-15T22:03:34.672Z,0.60
2018-12-15T22:06:09.045Z,0.60
2018-12-15T22:08:47.107Z,0.70
2018-12-15T22:11:22.175Z,0.60
2018-12-15T22:13:54.020Z,0.40
2018-12-15T22:16:23.766Z,0.30
2018-12-15T22:18:55.627Z,0.20
2018-12-15T22:21:29.717Z,0.20
2018-12-15T22:24:05.128Z,0.40
2018-12-15T22:26:37.241Z,0.20
2018-12-15T22:29:11.393Z,0.30
2018-12-15T22:31:43.473Z,0.40
2018-12-15T22:34:15.920Z,0.20
2018-12-15T22:36:47.698Z,0.30
2018-12-15T22:39:18.131Z,0.20
2018-12-15T22:41:52.471Z,0.00
2018-12-15T22:44:26.710Z,0.10
2018-12-15T22:46:58.452Z,0.20
2018-12-15T22:49:30.404Z,0.00
2018-12-15T22:52:02.587Z,0.00
2018-12-15T22:54:37.164Z,0.10
2018-12-15T22:57:11.133Z,0.00
2018-12-15T22:59:50.043Z,0.20
2018-12-15T23:02:22.618Z,0.20
2018-12-15T23:04:56.850Z,0.20
2018-12-15T23:07:30.174Z,0.10
2018-12-15T23:10:02.119Z,0.10
2018-12-15T23:12:31.990Z,0.10
2018-12-15T23:15:04.040Z,-0.10
2018-12-15T23:17:38.351Z,0.00
2018-12-15T23:20:12.712Z,0.20
2018-12-15T23:22:51.633Z,0.10
2018-12-15T23:25:26.802Z,0.30
2018-12-15T23:28:00.301Z,0.30
2018-12-15T23:30:35.160Z,0.20
2018-12-15T23:33:08.230Z,0.30
2018-12-15T23:35:40.281Z,0.30
2018-12-15T23:38:12.443Z,0.40
2018-12-15T23:40:44.760Z,0.20
2018-12-15T23:43:16.761Z,0.10
2018-12-15T23:45:55.399Z,0.10
2018-12-15T23:48:29.763Z,0.20
2018-12-15T23:51:02.280Z,0.10
2018-12-15T23:53:33.817Z,0.10
2018-12-15T23:56:10.516Z,0.00
2018-12-15T23:58:42.606Z,-0.10
